createdAt,value
2023-04-07T00:02:24.000Z,0
2023-04-07T00:03:38.000Z,0
2023-04-07T00:04:52.000Z,0
2023-04-07T00:06:06.000Z,0
2023-04-07T00:08:35.000Z,0
2023-04-07T00:09:49.000Z,0
2023-04-07T00:11:04.000Z,0
2023-04-07T00:12:18.000Z,0
2023-04-07T00:13:33.033Z,0
2023-04-07T00:14:47.000Z,0
2023-04-07T00:16:01.752Z,0
2023-04-07T00:17:16.000Z,0
2023-04-07T00:20:59.168Z,0
2023-04-07T00:22:12.000Z,0
2023-04-07T00:23:26.000Z,0
2023-04-07T00:24:41.000Z,0
2023-04-07T00:25:55.000Z,0
2023-04-07T00:27:09.051Z,0
2023-04-07T00:28:23.000Z,0
2023-04-07T00:29:37.773Z,0
2023-04-07T00:30:52.000Z,0
2023-04-07T00:32:06.000Z,0
2023-04-07T00:33:20.000Z,0
2023-04-07T00:34:35.183Z,0
2023-04-07T00:35:49.530Z,0
2023-04-07T00:37:03.000Z,0
2023-04-07T00:39:31.000Z,0
2023-04-07T00:40:45.000Z,0
2023-04-07T00:41:59.000Z,0
2023-04-07T00:43:13.000Z,0
2023-04-07T00:45:42.000Z,0
2023-04-07T00:46:56.853Z,0
2023-04-07T00:48:11.000Z,0
2023-04-07T00:49:25.000Z,0
2023-04-07T00:50:39.000Z,0
2023-04-07T00:51:54.262Z,0
2023-04-07T00:53:08.627Z,0
2023-04-07T00:55:37.000Z,0
2023-04-07T00:56:50.766Z,0
2023-04-07T00:58:05.130Z,0
2023-04-07T00:59:18.521Z,0
2023-04-07T01:00:32.000Z,0
2023-04-07T01:01:47.000Z,0
2023-04-07T01:03:01.000Z,0
2023-04-07T01:04:15.000Z,0
2023-04-07T01:05:30.000Z,0
2023-04-07T01:06:44.000Z,0
2023-04-07T01:07:59.000Z,0
2023-04-07T01:10:27.000Z,0
2023-04-07T01:11:42.069Z,0
2023-04-07T01:12:56.000Z,0
2023-04-07T01:15:25.000Z,0
2023-04-07T01:16:39.000Z,0
2023-04-07T01:17:53.000Z,0
2023-04-07T01:19:07.000Z,0
2023-04-07T01:20:21.597Z,0
2023-04-07T01:21:35.000Z,0
2023-04-07T01:22:50.000Z,0
2023-04-07T01:24:04.000Z,0
2023-04-07T01:26:33.000Z,0
2023-04-07T01:27:47.000Z,0
2023-04-07T01:29:02.000Z,0
2023-04-07T01:30:16.440Z,0
2023-04-07T01:31:30.000Z,0
2023-04-07T01:32:45.000Z,0
2023-04-07T01:33:59.510Z,0
2023-04-07T01:35:13.000Z,0
2023-04-07T01:36:27.263Z,0
2023-04-07T01:37:41.000Z,0
2023-04-07T01:38:55.000Z,0
2023-04-07T01:40:10.000Z,0
2023-04-07T01:41:23.000Z,0
2023-04-07T01:42:38.102Z,0
2023-04-07T01:43:52.000Z,0
2023-04-07T01:45:05.000Z,0
2023-04-07T01:46:20.000Z,0
2023-04-07T01:48:48.932Z,0
2023-04-07T01:50:03.000Z,0
2023-04-07T01:51:17.000Z,0
2023-04-07T01:52:31.991Z,0
2023-04-07T01:53:46.000Z,0
2023-04-07T01:55:00.000Z,0
2023-04-07T01:56:15.070Z,0
2023-04-07T01:57:29.000Z,0
2023-04-07T01:58:43.000Z,0
2023-04-07T01:59:58.000Z,0
2023-04-07T02:01:11.000Z,0
2023-04-07T02:02:25.000Z,0
2023-04-07T02:03:40.232Z,0
2023-04-07T02:04:54.598Z,0
2023-04-07T02:06:08.000Z,0
2023-04-07T02:07:23.299Z,0
2023-04-07T02:08:37.000Z,0
2023-04-07T02:09:51.068Z,0
2023-04-07T02:12:19.000Z,0
2023-04-07T02:13:34.000Z,0
2023-04-07T02:14:48.000Z,0
2023-04-07T02:16:02.000Z,0
2023-04-07T02:17:17.328Z,0
2023-04-07T02:18:31.000Z,0
2023-04-07T02:19:46.000Z,0
2023-04-07T02:22:14.000Z,0
2023-04-07T02:23:29.000Z,0
2023-04-07T02:24:43.000Z,0
2023-04-07T02:25:57.799Z,0
2023-04-07T02:27:12.000Z,0
2023-04-07T02:28:26.000Z,0
2023-04-07T02:30:55.000Z,0
2023-04-07T02:32:09.000Z,0
2023-04-07T02:33:23.939Z,0
2023-04-07T02:34:38.000Z,0
2023-04-07T02:35:51.713Z,0
2023-04-07T02:37:06.000Z,0
2023-04-07T02:38:19.000Z,0
2023-04-07T02:39:33.000Z,0
2023-04-07T02:40:48.000Z,0
2023-04-07T02:42:02.000Z,0
2023-04-07T02:43:16.895Z,0
2023-04-07T02:44:31.255Z,0
2023-04-07T02:45:45.000Z,0
2023-04-07T02:46:59.000Z,0
2023-04-07T02:49:28.000Z,0
2023-04-07T02:50:43.000Z,0
2023-04-07T02:51:57.000Z,0
2023-04-07T02:53:11.000Z,0
2023-04-07T02:54:25.000Z,0
2023-04-07T02:55:39.495Z,0
2023-04-07T02:56:53.000Z,0
2023-04-07T02:58:08.000Z,0
2023-04-07T02:59:22.000Z,0
2023-04-07T03:00:36.000Z,0
2023-04-07T03:01:51.000Z,0
2023-04-07T03:03:04.683Z,0
2023-04-07T03:04:19.000Z,0
2023-04-07T03:06:47.000Z,0
2023-04-07T03:08:02.000Z,0
2023-04-07T03:09:15.000Z,0
2023-04-07T03:10:29.000Z,0
2023-04-07T03:12:58.000Z,0
2023-04-07T03:14:12.000Z,0
2023-04-07T03:15:27.000Z,0
2023-04-07T03:16:41.640Z,0
2023-04-07T03:17:56.002Z,0
2023-04-07T03:19:10.000Z,0
2023-04-07T03:20:23.000Z,0
2023-04-07T03:21:38.135Z,0
2023-04-07T03:22:52.000Z,0
2023-04-07T03:24:05.000Z,0
2023-04-07T03:26:34.000Z,0
2023-04-07T03:27:48.000Z,0
2023-04-07T03:29:03.324Z,0
2023-04-07T03:30:17.000Z,0
2023-04-07T03:31:32.000Z,0
2023-04-07T03:32:46.000Z,0
2023-04-07T03:34:00.725Z,0
2023-04-07T03:35:15.000Z,0
2023-04-07T03:36:29.000Z,0
2023-04-07T03:37:43.000Z,0
2023-04-07T03:40:12.512Z,0
2023-04-07T03:41:26.000Z,0
2023-04-07T03:42:40.000Z,0
2023-04-07T03:43:54.000Z,0
2023-04-07T03:45:09.000Z,0
2023-04-07T03:46:22.000Z,0
2023-04-07T03:47:36.000Z,0
2023-04-07T03:48:51.000Z,0
2023-04-07T03:51:19.000Z,0
2023-04-07T03:52:34.000Z,0
2023-04-07T03:53:48.000Z,0
2023-04-07T03:55:02.000Z,1
2023-04-07T03:56:16.000Z,0
2023-04-07T03:57:30.000Z,1
2023-04-07T03:58:44.864Z,1
2023-04-07T03:59:59.000Z,1
2023-04-07T04:01:13.000Z,2
2023-04-07T04:02:27.774Z,2
2023-04-07T04:03:42.000Z,2
2023-04-07T04:04:56.000Z,3
2023-04-07T04:06:10.000Z,2
2023-04-07T04:07:25.000Z,3
2023-04-07T04:08:39.000Z,6
2023-04-07T04:09:52.000Z,7
2023-04-07T04:11:06.000Z,6
2023-04-07T04:12:21.000Z,9
2023-04-07T04:13:35.000Z,9
2023-04-07T04:14:48.000Z,8
2023-04-07T04:16:03.000Z,11
2023-04-07T04:17:17.520Z,11
2023-04-07T04:18:31.000Z,18
2023-04-07T04:19:46.000Z,19
2023-04-07T04:21:00.407Z,25
2023-04-07T04:22:14.715Z,32
2023-04-07T04:23:29.000Z,41
2023-04-07T04:24:42.390Z,52
2023-04-07T04:25:56.000Z,61
2023-04-07T04:27:10.000Z,74
2023-04-07T04:28:24.000Z,84
2023-04-07T04:29:38.000Z,100
2023-04-07T04:30:52.000Z,114
2023-04-07T04:32:07.000Z,130
2023-04-07T04:33:21.000Z,151
2023-04-07T04:34:35.000Z,170
2023-04-07T04:35:50.152Z,190
2023-04-07T04:37:04.000Z,213
2023-04-07T04:38:18.000Z,241
2023-04-07T04:40:47.000Z,284
2023-04-07T04:42:01.000Z,310
2023-04-07T04:43:15.956Z,335
2023-04-07T04:44:30.000Z,362
2023-04-07T04:45:44.000Z,387
2023-04-07T04:46:58.000Z,413
2023-04-07T04:48:13.000Z,442
2023-04-07T04:49:27.000Z,476
2023-04-07T04:50:40.000Z,509
2023-04-07T04:51:55.000Z,539
2023-04-07T04:53:09.000Z,568
2023-04-07T04:54:23.714Z,601
2023-04-07T04:55:38.000Z,647
2023-04-07T04:56:52.000Z,698
2023-04-07T04:58:06.622Z,755
2023-04-07T04:59:20.000Z,808
2023-04-07T05:00:35.000Z,851
2023-04-07T05:01:49.000Z,903
2023-04-07T05:04:18.131Z,973
2023-04-07T05:05:32.000Z,995
2023-04-07T05:06:46.000Z,938
2023-04-07T05:09:15.000Z,1413
2023-04-07T05:10:29.000Z,1477
2023-04-07T05:11:43.000Z,1276
2023-04-07T05:12:57.287Z,1350
2023-04-07T05:14:11.000Z,1306
2023-04-07T05:15:25.000Z,1436
2023-04-07T05:17:54.000Z,1519
2023-04-07T05:19:08.000Z,1582
2023-04-07T05:20:22.000Z,1594
2023-04-07T05:21:35.000Z,1595
2023-04-07T05:22:49.000Z,1801
2023-04-07T05:24:04.122Z,1846
2023-04-07T05:26:32.000Z,2577
2023-04-07T05:27:47.000Z,1582
2023-04-07T05:29:01.000Z,1891
2023-04-07T05:31:29.912Z,2084
2023-04-07T05:32:44.224Z,2342
2023-04-07T05:33:58.000Z,2438
2023-04-07T05:35:12.000Z,2695
2023-04-07T05:36:27.000Z,2982
2023-04-07T05:37:40.000Z,2586
2023-04-07T05:38:54.792Z,2342
2023-04-07T05:40:09.000Z,2209
2023-04-07T05:41:23.000Z,2427
2023-04-07T05:42:36.000Z,2252
2023-04-07T05:43:51.000Z,2192
2023-04-07T05:45:05.000Z,2176
2023-04-07T05:46:19.000Z,2214
2023-04-07T05:47:33.000Z,2322
2023-04-07T05:48:48.235Z,2378
2023-04-07T05:50:02.538Z,2455
2023-04-07T05:51:16.000Z,2470
2023-04-07T05:52:31.000Z,2488
2023-04-07T05:53:44.511Z,2546
2023-04-07T05:54:58.812Z,2598
2023-04-07T05:56:12.000Z,2629
2023-04-07T05:58:40.000Z,2778
2023-04-07T05:59:55.000Z,3012
2023-04-07T06:01:09.000Z,3063
2023-04-07T06:02:23.000Z,3107
2023-04-07T06:03:37.000Z,3240
2023-04-07T06:04:52.000Z,3642
2023-04-07T06:06:06.000Z,3550
2023-04-07T06:07:20.000Z,3611
2023-04-07T06:08:35.163Z,3660
2023-04-07T06:09:49.000Z,3883
2023-04-07T06:11:03.000Z,4124
2023-04-07T06:12:17.119Z,4320
2023-04-07T06:13:31.000Z,5317
2023-04-07T06:14:45.000Z,5109
2023-04-07T06:17:14.000Z,4584
2023-04-07T06:18:27.000Z,4719
2023-04-07T06:19:41.995Z,4881
2023-04-07T06:20:56.000Z,5132
2023-04-07T06:22:09.000Z,5277
2023-04-07T06:23:23.000Z,5457
2023-04-07T06:24:38.000Z,5774
2023-04-07T06:25:52.000Z,6066
2023-04-07T06:27:06.000Z,6214
2023-04-07T06:28:21.000Z,6375
2023-04-07T06:29:35.000Z,6152
2023-04-07T06:32:04.000Z,4364
2023-04-07T06:33:18.000Z,10254
2023-04-07T06:35:46.000Z,18754
2023-04-07T06:37:01.000Z,16934
2023-04-07T06:38:14.595Z,11671
2023-04-07T06:39:28.000Z,10996
2023-04-07T06:40:43.000Z,8632
2023-04-07T06:41:57.000Z,20911
2023-04-07T06:43:11.000Z,25550
2023-04-07T06:44:26.000Z,28651
2023-04-07T06:45:40.392Z,25708
2023-04-07T06:46:54.000Z,22593
2023-04-07T06:48:09.000Z,21256
2023-04-07T06:50:37.000Z,17123
2023-04-07T06:51:51.000Z,17868
2023-04-07T06:53:06.195Z,16575
2023-04-07T06:54:20.000Z,16607
2023-04-07T06:55:34.000Z,29571
2023-04-07T06:56:49.106Z,17628
2023-04-07T06:58:03.000Z,22093
2023-04-07T06:59:17.000Z,16963
2023-04-07T07:00:31.047Z,16432
2023-04-07T07:01:45.000Z,20029
2023-04-07T07:02:58.722Z,9703
2023-04-07T07:04:13.021Z,15530
2023-04-07T07:05:26.000Z,17121
2023-04-07T07:06:40.000Z,14568
2023-04-07T07:07:54.954Z,18545
2023-04-07T07:09:09.000Z,25483
2023-04-07T07:10:23.000Z,15097
2023-04-07T07:12:52.000Z,27928
2023-04-07T07:14:06.000Z,32582
2023-04-07T07:15:20.766Z,28838
2023-04-07T07:16:35.000Z,16065
2023-04-07T07:17:49.000Z,20967
2023-04-07T07:19:03.000Z,11913
2023-04-07T07:20:17.000Z,18150
2023-04-07T07:21:32.000Z,75950
2023-04-07T07:22:46.576Z,78067
2023-04-07T07:23:59.000Z,78606
2023-04-07T07:25:14.000Z,78877
2023-04-07T07:26:28.524Z,71538
2023-04-07T07:27:42.000Z,28029
2023-04-07T07:28:57.119Z,29261
2023-04-07T07:31:25.000Z,25402
2023-04-07T07:32:40.000Z,21321
2023-04-07T07:33:54.000Z,18622
2023-04-07T07:35:08.000Z,17737
2023-04-07T07:36:22.000Z,27766
2023-04-07T07:37:37.000Z,19501
2023-04-07T07:38:51.000Z,74564
2023-04-07T07:40:05.000Z,68124
2023-04-07T07:41:20.107Z,22985
2023-04-07T07:42:33.000Z,17249
2023-04-07T07:43:47.000Z,16571
2023-04-07T07:46:15.000Z,17330
2023-04-07T07:47:29.000Z,14040
2023-04-07T07:48:44.000Z,11931
2023-04-07T07:49:58.000Z,10495
2023-04-07T07:51:12.000Z,11966
2023-04-07T07:52:26.000Z,19644
2023-04-07T07:53:41.000Z,23068
2023-04-07T07:56:09.000Z,17078
2023-04-07T07:57:24.000Z,70397
2023-04-07T07:58:38.000Z,28786
2023-04-07T07:59:52.000Z,18996
2023-04-07T08:01:07.000Z,24300
2023-04-07T08:02:20.000Z,18507
2023-04-07T08:03:34.000Z,18341
2023-04-07T08:04:49.000Z,16724
2023-04-07T08:06:03.000Z,15643
2023-04-07T08:07:17.000Z,16254
2023-04-07T08:08:30.000Z,17295
2023-04-07T08:09:45.000Z,11863
2023-04-07T08:10:59.000Z,13310
2023-04-07T08:12:13.000Z,17008
2023-04-07T08:13:28.000Z,14411
2023-04-07T08:14:42.460Z,13441
2023-04-07T08:15:56.762Z,20393
2023-04-07T08:17:11.000Z,21618
2023-04-07T08:18:25.370Z,12974
2023-04-07T08:19:39.000Z,20277
2023-04-07T08:20:53.000Z,18870
2023-04-07T08:22:08.000Z,15338
2023-04-07T08:23:22.562Z,14139
2023-04-07T08:24:36.000Z,16451
2023-04-07T08:25:50.000Z,17195
2023-04-07T08:27:04.000Z,16247
2023-04-07T08:28:18.000Z,14585
2023-04-07T08:29:32.000Z,12271
2023-04-07T08:30:46.000Z,13285
2023-04-07T08:32:00.000Z,11398
2023-04-07T08:33:15.000Z,11464
2023-04-07T08:34:29.000Z,12123
2023-04-07T08:35:43.687Z,10770
2023-04-07T08:36:57.977Z,11570
2023-04-07T08:38:12.000Z,12758
2023-04-07T08:39:26.000Z,15464
2023-04-07T08:41:55.000Z,14394
2023-04-07T08:43:09.000Z,18205
2023-04-07T08:44:23.787Z,18796
2023-04-07T08:45:38.000Z,20555
2023-04-07T08:46:52.000Z,15642
2023-04-07T08:48:06.000Z,12792
2023-04-07T08:49:21.000Z,16020
2023-04-07T08:50:35.000Z,24588
2023-04-07T08:51:48.000Z,17193
2023-04-07T08:53:02.000Z,15516
2023-04-07T08:54:17.000Z,14582
2023-04-07T08:55:31.539Z,14449
2023-04-07T08:56:45.000Z,14515
2023-04-07T08:58:00.000Z,70052
2023-04-07T08:59:14.000Z,19254
2023-04-07T09:00:28.000Z,35506
2023-04-07T09:01:43.000Z,10017
2023-04-07T09:02:57.000Z,34557
2023-04-07T09:04:11.000Z,26187
2023-04-07T09:05:25.000Z,14817
2023-04-07T09:06:40.243Z,25853
2023-04-07T09:09:08.000Z,16041
2023-04-07T09:10:22.000Z,12553
2023-04-07T09:11:36.000Z,11800
2023-04-07T09:12:50.000Z,10596
2023-04-07T09:14:05.000Z,9914
2023-04-07T09:15:19.000Z,9527
2023-04-07T09:16:33.000Z,9392
2023-04-07T09:17:47.989Z,9474
2023-04-07T09:19:02.000Z,9587
2023-04-07T09:20:16.583Z,9775
2023-04-07T09:21:30.000Z,9875
2023-04-07T09:22:45.000Z,10111
2023-04-07T09:23:59.000Z,10054
2023-04-07T09:25:13.000Z,9914
2023-04-07T09:27:42.000Z,9418
2023-04-07T09:28:56.000Z,9226
2023-04-07T09:30:11.000Z,9150
2023-04-07T09:31:25.000Z,9068
2023-04-07T09:33:53.000Z,8892
2023-04-07T09:35:08.000Z,8836
2023-04-07T09:37:35.000Z,8493
2023-04-07T09:38:50.000Z,8335
2023-04-07T09:40:04.440Z,8170
2023-04-07T09:41:18.000Z,8162
2023-04-07T09:42:32.000Z,8239
2023-04-07T09:43:46.000Z,8425
2023-04-07T09:45:00.000Z,8580
2023-04-07T09:46:15.000Z,8641
2023-04-07T09:47:28.000Z,8553
2023-04-07T09:48:42.000Z,8382
2023-04-07T09:49:56.000Z,8052
2023-04-07T09:51:11.268Z,7798
2023-04-07T09:52:25.000Z,7741
2023-04-07T09:53:39.000Z,7801
2023-04-07T09:54:54.157Z,7969
2023-04-07T09:56:08.000Z,8144
2023-04-07T09:57:22.000Z,8368
2023-04-07T09:58:37.069Z,8518
2023-04-07T09:59:51.000Z,8572
2023-04-07T10:01:05.000Z,8408
2023-04-07T10:02:19.952Z,8162
2023-04-07T10:03:34.000Z,7995
2023-04-07T10:04:47.000Z,7848
2023-04-07T10:06:02.000Z,7893
2023-04-07T10:07:16.000Z,7971
2023-04-07T10:08:30.000Z,8009
2023-04-07T10:09:44.951Z,8021
2023-04-07T10:10:59.000Z,8028
2023-04-07T10:12:13.000Z,8048
2023-04-07T10:13:27.853Z,8131
2023-04-07T10:14:42.000Z,8234
2023-04-07T10:15:56.000Z,8239
2023-04-07T10:17:10.743Z,8396
2023-04-07T10:18:25.000Z,8488
2023-04-07T10:19:39.000Z,8570
2023-04-07T10:20:53.000Z,8371
2023-04-07T10:22:07.957Z,8482
2023-04-07T10:23:22.000Z,8286
2023-04-07T10:24:36.000Z,8298
2023-04-07T10:25:50.000Z,8207
2023-04-07T10:27:05.000Z,8146
2023-04-07T10:28:19.461Z,8197
2023-04-07T10:29:32.000Z,8066
2023-04-07T10:30:47.000Z,7831
2023-04-07T10:32:01.414Z,7712
2023-04-07T10:33:15.000Z,7702
2023-04-07T10:34:30.000Z,7599
2023-04-07T10:35:44.316Z,7461
2023-04-07T10:36:58.000Z,7333
2023-04-07T10:38:12.000Z,7221
2023-04-07T10:41:55.000Z,6910
2023-04-07T10:43:10.000Z,6795
2023-04-07T10:44:24.000Z,6603
2023-04-07T10:45:38.000Z,6421
2023-04-07T10:46:53.006Z,6363
2023-04-07T10:48:07.000Z,6352
2023-04-07T10:50:35.908Z,5860
2023-04-07T10:51:50.000Z,5700
2023-04-07T10:53:04.000Z,5542
2023-04-07T10:55:32.000Z,5248
2023-04-07T10:56:46.000Z,5160
2023-04-07T10:58:00.000Z,5173
2023-04-07T10:59:15.000Z,5033
2023-04-07T11:00:29.000Z,4979
2023-04-07T11:01:43.000Z,5022
2023-04-07T11:02:58.000Z,5051
2023-04-07T11:04:12.000Z,5292
2023-04-07T11:05:26.717Z,5503
2023-04-07T11:06:41.000Z,5608
2023-04-07T11:07:54.000Z,6001
2023-04-07T11:10:22.000Z,6473
2023-04-07T11:11:37.000Z,6694
2023-04-07T11:14:05.000Z,6952
2023-04-07T11:15:20.000Z,6906
2023-04-07T11:16:34.000Z,6816
2023-04-07T11:17:47.000Z,6788
2023-04-07T11:19:01.178Z,6787
2023-04-07T11:20:15.000Z,6773
2023-04-07T11:21:29.000Z,6779
2023-04-07T11:22:44.000Z,6782
2023-04-07T11:23:58.385Z,6763
2023-04-07T11:25:12.000Z,6746
2023-04-07T11:26:27.000Z,6703
2023-04-07T11:27:41.295Z,6651
2023-04-07T11:28:55.000Z,6622
2023-04-07T11:30:09.000Z,6641
2023-04-07T11:31:24.192Z,6660
2023-04-07T11:32:38.000Z,6653
2023-04-07T11:33:51.853Z,6561
2023-04-07T11:35:06.161Z,6501
2023-04-07T11:37:34.000Z,6342
2023-04-07T11:38:49.064Z,6284
2023-04-07T11:40:03.000Z,6236
2023-04-07T11:41:17.000Z,6228
2023-04-07T11:42:31.950Z,6248
2023-04-07T11:43:45.000Z,6282
2023-04-07T11:44:59.000Z,6252
2023-04-07T11:46:13.915Z,6226
2023-04-07T11:47:28.000Z,6195
2023-04-07T11:51:11.000Z,5959
2023-04-07T11:53:39.706Z,5916
2023-04-07T11:54:54.008Z,5906
2023-04-07T11:56:08.000Z,5892
2023-04-07T11:57:22.000Z,5828
2023-04-07T11:58:36.000Z,5764
2023-04-07T11:59:50.000Z,5727
2023-04-07T12:01:04.591Z,5805
2023-04-07T12:02:18.000Z,5928
2023-04-07T12:03:33.181Z,5976
2023-04-07T12:04:47.485Z,5979
2023-04-07T12:06:01.000Z,5906
2023-04-07T12:07:16.000Z,5910
2023-04-07T12:08:30.387Z,5867
2023-04-07T12:09:44.675Z,5840
2023-04-07T12:13:27.000Z,5540
2023-04-07T12:14:41.000Z,5380
2023-04-07T12:15:56.000Z,5172
2023-04-07T12:17:10.000Z,5032
2023-04-07T12:18:24.000Z,4859
2023-04-07T12:19:39.080Z,4782
2023-04-07T12:20:53.000Z,4679
2023-04-07T12:22:07.000Z,4634
2023-04-07T12:23:21.034Z,4677
2023-04-07T12:24:35.000Z,4746
2023-04-07T12:25:49.000Z,4931
2023-04-07T12:28:18.000Z,5081
2023-04-07T12:29:32.000Z,5211
2023-04-07T12:30:46.000Z,5218
2023-04-07T12:32:01.000Z,5253
2023-04-07T12:33:15.000Z,5195
2023-04-07T12:34:29.747Z,5127
2023-04-07T12:35:44.000Z,5069
2023-04-07T12:36:58.000Z,4988
2023-04-07T12:38:12.650Z,4935
2023-04-07T12:39:26.000Z,4906
2023-04-07T12:40:40.000Z,4869
2023-04-07T12:41:54.626Z,4770
2023-04-07T12:43:08.000Z,4656
2023-04-07T12:44:22.000Z,4501
2023-04-07T12:45:36.555Z,4541
2023-04-07T12:46:50.000Z,4576
2023-04-07T12:48:05.000Z,4616
2023-04-07T12:49:19.000Z,4597
2023-04-07T12:50:33.000Z,4492
2023-04-07T12:51:48.000Z,4352
2023-04-07T12:53:02.000Z,4241
2023-04-07T12:54:16.000Z,4166
2023-04-07T12:55:30.959Z,4147
2023-04-07T12:56:45.000Z,4115
2023-04-07T12:57:59.000Z,4046
2023-04-07T12:59:13.000Z,4001
2023-04-07T13:00:27.238Z,3897
2023-04-07T13:01:41.000Z,3944
2023-04-07T13:02:55.000Z,4064
2023-04-07T13:04:10.136Z,4132
2023-04-07T13:05:24.000Z,4149
2023-04-07T13:06:37.000Z,4115
2023-04-07T13:07:52.000Z,4040
2023-04-07T13:09:06.000Z,3975
2023-04-07T13:10:20.000Z,3974
2023-04-07T13:11:35.000Z,4075
2023-04-07T13:12:49.000Z,3910
2023-04-07T13:14:03.000Z,4058
2023-04-07T13:15:17.882Z,4151
2023-04-07T13:16:32.000Z,4289
2023-04-07T13:17:46.000Z,4445
2023-04-07T13:19:00.774Z,4534
2023-04-07T13:20:15.000Z,4588
2023-04-07T13:21:29.000Z,4568
2023-04-07T13:22:43.681Z,4570
2023-04-07T13:23:58.000Z,4551
2023-04-07T13:25:12.000Z,4554
2023-04-07T13:26:25.000Z,4479
2023-04-07T13:27:39.000Z,4413
2023-04-07T13:28:54.000Z,4344
2023-04-07T13:30:08.523Z,4281
2023-04-07T13:31:22.831Z,4235
2023-04-07T13:32:37.000Z,4287
2023-04-07T13:33:51.422Z,4327
2023-04-07T13:35:05.000Z,4444
2023-04-07T13:36:20.000Z,4537
2023-04-07T13:37:34.000Z,4629
2023-04-07T13:38:48.000Z,4657
2023-04-07T13:40:02.936Z,4609
2023-04-07T13:42:31.000Z,4454
2023-04-07T13:43:44.000Z,4351
2023-04-07T13:44:59.000Z,4266
2023-04-07T13:46:13.000Z,4112
2023-04-07T13:47:27.778Z,3864
2023-04-07T13:48:42.000Z,3375
2023-04-07T13:49:56.000Z,2953
2023-04-07T13:51:10.000Z,2668
2023-04-07T13:52:24.978Z,2509
2023-04-07T13:53:39.000Z,2428
2023-04-07T13:54:53.000Z,2384
2023-04-07T13:57:22.000Z,2324
2023-04-07T13:58:36.000Z,2302
2023-04-07T13:59:50.774Z,2277
2023-04-07T14:01:05.000Z,2271
2023-04-07T14:02:19.000Z,2300
2023-04-07T14:03:33.688Z,2427
2023-04-07T14:04:47.000Z,2420
2023-04-07T14:06:02.000Z,2429
2023-04-07T14:07:15.000Z,2428
2023-04-07T14:08:29.000Z,2391
2023-04-07T14:09:44.000Z,2343
2023-04-07T14:10:58.537Z,2267
2023-04-07T14:12:12.000Z,2286
2023-04-07T14:13:27.000Z,2332
2023-04-07T14:14:41.435Z,2368
2023-04-07T14:15:55.000Z,2394
2023-04-07T14:17:10.000Z,2378
2023-04-07T14:18:24.334Z,2337
2023-04-07T14:19:38.000Z,2379
2023-04-07T14:20:52.947Z,2428
2023-04-07T14:22:07.242Z,2435
2023-04-07T14:23:21.000Z,2437
2023-04-07T14:24:34.000Z,2433
2023-04-07T14:25:49.195Z,2433
2023-04-07T14:27:03.000Z,2433
2023-04-07T14:28:17.000Z,2426
2023-04-07T14:29:32.094Z,2435
2023-04-07T14:30:46.000Z,2441
2023-04-07T14:32:00.000Z,2449
2023-04-07T14:34:29.000Z,2438
2023-04-07T14:36:57.901Z,2361
2023-04-07T14:38:12.000Z,2368
2023-04-07T14:39:26.000Z,2381
2023-04-07T14:40:40.801Z,2408
2023-04-07T14:41:54.000Z,2459
2023-04-07T14:43:08.461Z,2487
2023-04-07T14:44:22.000Z,2583
2023-04-07T14:45:37.000Z,2598
2023-04-07T14:46:51.000Z,2598
2023-04-07T14:48:05.661Z,2603
2023-04-07T14:49:19.000Z,2616
2023-04-07T14:50:34.264Z,2618
2023-04-07T14:53:02.000Z,2610
2023-04-07T14:54:16.000Z,2617
2023-04-07T14:56:44.000Z,2603
2023-04-07T14:57:58.000Z,2593
2023-04-07T14:59:12.000Z,2599
2023-04-07T15:00:26.000Z,2611
2023-04-07T15:01:41.000Z,2605
2023-04-07T15:02:55.000Z,2727
2023-04-07T15:04:09.000Z,2589
2023-04-07T15:05:24.000Z,2628
2023-04-07T15:06:38.280Z,2538
2023-04-07T15:07:52.000Z,2541
2023-04-07T15:09:05.000Z,2548
2023-04-07T15:10:19.308Z,2650
2023-04-07T15:11:33.000Z,2741
2023-04-07T15:12:47.000Z,2838
2023-04-07T15:14:02.196Z,2869
2023-04-07T15:15:16.000Z,2908
2023-04-07T15:16:30.810Z,2916
2023-04-07T15:17:45.100Z,2930
2023-04-07T15:18:59.000Z,2963
2023-04-07T15:20:13.000Z,2976
2023-04-07T15:22:42.000Z,2921
2023-04-07T15:23:56.000Z,2906
2023-04-07T15:25:10.917Z,2913
2023-04-07T15:27:38.000Z,2859
2023-04-07T15:28:51.924Z,2884
2023-04-07T15:30:06.000Z,2837
2023-04-07T15:31:19.000Z,2797
2023-04-07T15:32:33.883Z,2749
2023-04-07T15:33:48.000Z,2706
2023-04-07T15:35:02.000Z,2673
2023-04-07T15:36:16.000Z,2659
2023-04-07T15:38:45.000Z,2560
2023-04-07T15:39:59.000Z,2566
2023-04-07T15:41:13.000Z,2469
2023-04-07T15:42:28.000Z,2425
2023-04-07T15:43:42.574Z,2379
2023-04-07T15:44:56.000Z,2337
2023-04-07T15:46:11.000Z,2307
2023-04-07T15:47:25.484Z,2301
2023-04-07T15:48:39.000Z,2301
2023-04-07T15:49:53.000Z,2274
2023-04-07T15:51:07.429Z,2245
2023-04-07T15:52:21.000Z,2227
2023-04-07T15:53:36.000Z,2198
2023-04-07T15:54:50.000Z,2173
2023-04-07T15:56:04.000Z,2166
2023-04-07T15:57:18.000Z,2137
2023-04-07T15:58:32.000Z,2125
2023-04-07T15:59:46.000Z,2115
2023-04-07T16:00:59.000Z,2099
2023-04-07T16:02:14.248Z,2087
2023-04-07T16:03:28.000Z,2089
2023-04-07T16:04:42.000Z,2063
2023-04-07T16:05:57.145Z,2042
2023-04-07T16:07:11.000Z,2022
2023-04-07T16:08:25.000Z,2004
2023-04-07T16:09:40.043Z,1978
2023-04-07T16:12:08.000Z,1952
2023-04-07T16:13:22.000Z,1938
2023-04-07T16:14:37.000Z,1944
2023-04-07T16:15:51.000Z,1939
2023-04-07T16:17:04.894Z,1930
2023-04-07T16:18:19.000Z,1928
2023-04-07T16:19:33.000Z,1899
2023-04-07T16:20:47.000Z,1892
2023-04-07T16:22:02.000Z,1878
2023-04-07T16:23:16.000Z,1875
2023-04-07T16:24:30.695Z,1859
2023-04-07T16:25:45.006Z,1835
2023-04-07T16:26:59.000Z,1821
2023-04-07T16:29:27.000Z,1781
2023-04-07T16:30:42.000Z,1753
2023-04-07T16:31:56.497Z,1721
2023-04-07T16:33:10.000Z,1701
2023-04-07T16:34:24.000Z,1688
2023-04-07T16:35:38.000Z,1657
2023-04-07T16:36:52.000Z,1623
2023-04-07T16:38:07.000Z,1599
2023-04-07T16:39:21.363Z,1578
2023-04-07T16:40:35.000Z,1558
2023-04-07T16:41:49.000Z,1537
2023-04-07T16:43:04.271Z,1511
2023-04-07T16:44:18.000Z,1485
2023-04-07T16:45:32.000Z,1445
2023-04-07T16:46:47.167Z,1424
2023-04-07T16:48:01.473Z,1402
2023-04-07T16:49:15.000Z,1378
2023-04-07T16:50:29.117Z,1351
2023-04-07T16:51:43.413Z,1325
2023-04-07T16:52:57.000Z,1293
2023-04-07T16:54:12.000Z,1263
2023-04-07T16:55:26.000Z,1230
2023-04-07T16:56:40.625Z,1200
2023-04-07T16:57:54.912Z,1177
2023-04-07T16:59:09.000Z,1147
2023-04-07T17:00:23.000Z,1121
2023-04-07T17:01:37.814Z,1082
2023-04-07T17:02:52.000Z,1048
2023-04-07T17:04:06.000Z,1013
2023-04-07T17:05:20.730Z,978
2023-04-07T17:06:35.000Z,947
2023-04-07T17:07:49.000Z,917
2023-04-07T17:09:03.617Z,891
2023-04-07T17:10:17.000Z,867
2023-04-07T17:11:31.000Z,838
2023-04-07T17:12:45.000Z,799
2023-04-07T17:13:59.875Z,765
2023-04-07T17:15:14.000Z,742
2023-04-07T17:16:28.000Z,710
2023-04-07T17:17:42.000Z,668
2023-04-07T17:18:57.084Z,634
2023-04-07T17:21:25.000Z,563
2023-04-07T17:22:39.000Z,531
2023-04-07T17:23:54.285Z,497
2023-04-07T17:25:08.000Z,465
2023-04-07T17:26:22.000Z,433
2023-04-07T17:27:37.187Z,399
2023-04-07T17:28:50.000Z,368
2023-04-07T17:30:04.000Z,345
2023-04-07T17:31:19.000Z,322
2023-04-07T17:32:33.000Z,301
2023-04-07T17:33:47.000Z,278
2023-04-07T17:35:02.022Z,257
2023-04-07T17:36:16.000Z,234
2023-04-07T17:37:30.000Z,212
2023-04-07T17:38:44.938Z,195
2023-04-07T17:41:13.000Z,163
2023-04-07T17:43:42.000Z,133
2023-04-07T17:44:56.000Z,120
2023-04-07T17:46:10.000Z,109
2023-04-07T17:47:25.000Z,96
2023-04-07T17:48:39.000Z,90
2023-04-07T17:49:52.000Z,79
2023-04-07T17:51:06.000Z,71
2023-04-07T17:52:21.000Z,70
2023-04-07T17:53:35.580Z,64
2023-04-07T17:54:49.000Z,56
2023-04-07T17:56:04.000Z,57
2023-04-07T17:57:18.482Z,45
2023-04-07T17:58:32.000Z,39
2023-04-07T17:59:47.000Z,33
2023-04-07T18:01:01.395Z,29
2023-04-07T18:02:15.000Z,22
2023-04-07T18:03:30.000Z,20
2023-04-07T18:04:44.292Z,12
2023-04-07T18:05:58.000Z,16
2023-04-07T18:07:13.000Z,12
2023-04-07T18:08:27.000Z,7
2023-04-07T18:09:41.000Z,9
2023-04-07T18:10:55.000Z,7
2023-04-07T18:12:10.222Z,7
2023-04-07T18:13:24.000Z,2
2023-04-07T18:14:38.000Z,1